Alexander, Canada
Current Conditions -  °F | °C
As of 8:00 AM on Wednesday 28 Jan 2015 (Local Time) from CYBR Reporting Station
Moderate Fog Moderate Fog  
Wind Chill: 12°   Ceiling: 200
Heat Index: 25°   Visibility: 0.37mi
Dew Point: 25°   Wind: 16mph
Humidity: 100%   Direction: 40°NE
Pressure: 29.84"   Gusts: NA
Location:  49.82°N, 100.3°W
Report Text: CYBR 281400Z 04014KT 3/8SM FZFG VV002 M04/M04 A2984 RMK FG8 RIME ON INDICATOR SLP132
Loading
Personal Weather Stations






























Interactive Weather Map New forecast layout! Learn more

10-Day Weather Forecast

Advertisements
Track Severe Weather on mobile